Time;durP1;ratioP1;P1;durP2;ratioP2;P2;SDS_P1;SDS_P2;PMS_P1;PMS_P2;Temp;Humidity;BMP_temperature;BMP_pressure;BME280_temperature;BME280_humidity;BME280_pressure;Samples;Min_cycle;Max_cycle;Signal;HPM_P1;HPM_P2
2021/12/27 00:01:56;;;;;;;15.47;11.23;;;;;;;;;;5006731;28;20749;-56
2021/12/27 00:04:22;;;;;;;13.80;10.27;;;;;;;;;;5011769;28;20272;-56
2021/12/27 00:06:48;;;;;;;14.33;10.80;;;;;;;;;;5017709;28;20240;-56
2021/12/27 00:09:14;;;;;;;11.80;10.07;;;;;;;;;;5015449;28;20240;-56
2021/12/27 00:11:40;;;;;;;14.90;10.70;;;;;;;;;;5020686;28;20710;-57
2021/12/27 00:14:06;;;;;;;14.17;11.03;;;;;;;;;;5006987;28;20982;-57
2021/12/27 00:16:32;;;;;;;13.30;10.30;;;;;;;;;;5007618;28;20236;-57
2021/12/27 00:18:58;;;;;;;14.00;10.73;;;;;;;;;;5000634;28;20237;-57
2021/12/27 00:21:24;;;;;;;12.53;10.17;;;;;;;;;;4996304;28;21108;-56
2021/12/27 00:23:50;;;;;;;14.33;10.73;;;;;;;;;;5003642;28;20237;-57
2021/12/27 00:26:16;;;;;;;15.73;11.50;;;;;;;;;;4999469;28;20238;-57
2021/12/27 00:28:42;;;;;;;13.83;11.00;;;;;;;;;;4999847;28;20711;-57
2021/12/27 00:31:08;;;;;;;14.50;10.53;;;;;;;;;;4999057;28;20233;-56
2021/12/27 00:33:34;;;;;;;13.73;10.53;;;;;;;;;;5004427;28;20241;-56
2021/12/27 00:36:00;;;;;;;13.57;10.00;;;;;;;;;;4997828;28;24711;-56
2021/12/27 00:38:26;;;;;;;13.93;10.57;;;;;;;;;;4998424;28;20859;-56
2021/12/27 00:40:52;;;;;;;13.50;10.53;;;;;;;;;;4999631;28;20287;-56
2021/12/27 00:43:18;;;;;;;14.20;11.23;;;;;;;;;;5004020;28;20698;-56
2021/12/27 00:45:44;;;;;;;12.17;10.37;;;;;;;;;;4997474;28;20313;-56
2021/12/27 00:48:10;;;;;;;13.60;10.17;;;;;;;;;;4998547;28;20236;-56
2021/12/27 00:50:36;;;;;;;13.30;10.60;;;;;;;;;;5001673;28;20422;-56
2021/12/27 00:53:02;;;;;;;13.27;10.63;;;;;;;;;;4998276;28;20266;-56
2021/12/27 00:55:28;;;;;;;13.97;11.13;;;;;;;;;;4999294;28;20748;-56
2021/12/27 00:57:54;;;;;;;14.57;10.83;;;;;;;;;;5004040;28;20290;-56
2021/12/27 01:00:21;;;;;;;14.30;11.20;;;;;;;;;;5006867;28;20232;-57
2021/12/27 01:02:47;;;;;;;14.33;10.43;;;;;;;;;;4994533;28;20778;-56
2021/12/27 01:05:13;;;;;;;15.20;11.00;;;;;;;;;;5007584;28;20224;-57
2021/12/27 01:07:39;;;;;;;11.93;9.80;;;;;;;;;;4996024;28;22409;-56
2021/12/27 01:18:06;;;;;;;14.57;11.17;;;;;;;;;;4999259;28;21202;-57
2021/12/27 01:20:32;;;;;;;13.63;10.90;;;;;;;;;;5005511;28;20331;-57
2021/12/27 01:22:58;;;;;;;14.97;11.67;;;;;;;;;;4991209;28;20245;-57
2021/12/27 01:25:25;;;;;;;14.60;11.20;;;;;;;;;;5010293;28;20341;-56
2021/12/27 01:27:54;;;;;;;13.30;10.37;;;;;;;;;;5009300;28;20752;-57
2021/12/27 01:30:20;;;;;;;12.77;10.37;;;;;;;;;;5006708;28;20360;-57
2021/12/27 01:32:53;;;;;;;12.47;10.47;;;;;;;;;;5005652;28;21839;-57
2021/12/27 01:35:19;;;;;;;14.67;10.53;;;;;;;;;;5002625;28;20231;-57
2021/12/27 01:37:45;;;;;;;14.57;11.43;;;;;;;;;;4998329;28;20232;-57
2021/12/27 01:40:12;;;;;;;14.37;10.57;;;;;;;;;;5007747;28;20302;-56
2021/12/27 01:42:38;;;;;;;11.87;10.60;;;;;;;;;;5010040;28;21114;-57
2021/12/27 01:45:04;;;;;;;14.13;11.10;;;;;;;;;;5015247;28;20233;-57
2021/12/27 01:47:31;;;;;;;14.67;10.67;;;;;;;;;;5004407;28;20232;-57
2021/12/27 01:49:57;;;;;;;13.63;11.00;;;;;;;;;;5005682;28;20340;-57
2021/12/27 01:52:23;;;;;;;14.37;10.63;;;;;;;;;;5002851;28;20232;-57
2021/12/27 01:54:50;;;;;;;12.73;10.63;;;;;;;;;;5002938;28;20808;-56
2021/12/27 01:57:16;;;;;;;12.87;11.17;;;;;;;;;;4989232;28;20230;-56
2021/12/27 01:59:42;;;;;;;12.60;10.27;;;;;;;;;;5007180;28;20242;-57
2021/12/27 02:02:08;;;;;;;13.83;10.97;;;;;;;;;;5015076;28;20235;-57
2021/12/27 02:04:34;;;;;;;12.87;10.53;;;;;;;;;;5004911;28;20285;-57
2021/12/27 02:07:00;;;;;;;14.27;11.00;;;;;;;;;;5004304;28;20405;-57
2021/12/27 02:09:37;;;;;;;14.10;10.50;;;;;;;;;;5005515;28;20329;-57
2021/12/27 02:12:03;;;;;;;13.93;11.00;;;;;;;;;;5001027;28;20232;-57
2021/12/27 02:14:29;;;;;;;13.33;10.80;;;;;;;;;;4987128;28;20255;-56
2021/12/27 02:16:55;;;;;;;12.47;10.27;;;;;;;;;;4993223;28;20252;-57
2021/12/27 02:19:21;;;;;;;13.03;10.17;;;;;;;;;;4998128;28;20319;-57
2021/12/27 02:21:47;;;;;;;12.37;9.83;;;;;;;;;;5001956;28;20229;-57
2021/12/27 02:24:13;;;;;;;12.53;10.10;;;;;;;;;;5002197;28;20220;-56
2021/12/27 02:26:40;;;;;;;13.83;10.87;;;;;;;;;;4998400;28;20652;-57
2021/12/27 02:29:09;;;;;;;12.43;10.17;;;;;;;;;;5001686;28;20354;-57
2021/12/27 02:31:39;;;;;;;13.70;10.03;;;;;;;;;;4994481;28;20233;-57
2021/12/27 02:34:07;;;;;;;12.83;9.83;;;;;;;;;;4980608;28;20233;-57
2021/12/27 02:36:33;;;;;;;12.70;10.23;;;;;;;;;;4983559;28;20247;-57
2021/12/27 02:38:59;;;;;;;12.70;10.27;;;;;;;;;;4978413;28;20236;-57
2021/12/27 02:41:25;;;;;;;13.37;10.00;;;;;;;;;;4981184;28;20225;-57
2021/12/27 02:43:51;;;;;;;13.33;10.00;;;;;;;;;;4985731;28;25311;-57
2021/12/27 02:46:17;;;;;;;12.20;10.00;;;;;;;;;;4997777;28;20271;-57
2021/12/27 02:48:47;;;;;;;12.80;10.53;;;;;;;;;;4988110;28;20236;-57
2021/12/27 02:51:13;;;;;;;11.57;9.50;;;;;;;;;;4982504;28;20229;-57
2021/12/27 02:53:39;;;;;;;12.77;9.73;;;;;;;;;;4983750;28;20666;-57
2021/12/27 02:56:06;;;;;;;12.77;10.10;;;;;;;;;;4983398;28;20244;-57
2021/12/27 02:58:32;;;;;;;11.43;9.20;;;;;;;;;;4981901;28;20233;-57
2021/12/27 03:01:00;;;;;;;13.87;9.70;;;;;;;;;;4992543;28;20265;-56
2021/12/27 03:03:26;;;;;;;14.43;10.43;;;;;;;;;;5003459;28;20216;-56
2021/12/27 03:05:52;;;;;;;12.57;9.90;;;;;;;;;;4989793;28;20287;-57
2021/12/27 03:08:18;;;;;;;11.80;9.80;;;;;;;;;;5001347;28;21235;-56
2021/12/27 03:10:48;;;;;;;12.53;10.43;;;;;;;;;;4991118;28;20237;-57
2021/12/27 03:13:17;;;;;;;11.80;9.70;;;;;;;;;;4982797;28;20740;-56
2021/12/27 03:15:43;;;;;;;12.77;10.13;;;;;;;;;;4983613;28;20236;-57
2021/12/27 03:18:09;;;;;;;13.03;9.97;;;;;;;;;;4996559;28;20248;-57
2021/12/27 03:20:35;;;;;;;13.37;9.80;;;;;;;;;;5000012;28;20244;-57
2021/12/27 03:23:01;;;;;;;12.67;10.03;;;;;;;;;;5001290;28;20231;-57
2021/12/27 03:25:27;;;;;;;13.23;10.23;;;;;;;;;;5007397;28;20323;-57
2021/12/27 03:27:53;;;;;;;11.40;9.43;;;;;;;;;;5009073;28;20244;-56
2021/12/27 03:30:20;;;;;;;11.37;8.93;;;;;;;;;;5008789;28;20568;-56
2021/12/27 03:32:46;;;;;;;13.40;9.93;;;;;;;;;;5003432;28;20243;-57
2021/12/27 03:35:15;;;;;;;12.03;9.60;;;;;;;;;;5002717;28;20233;-57
2021/12/27 03:37:42;;;;;;;11.53;9.27;;;;;;;;;;4997555;28;20236;-56
2021/12/27 03:40:08;;;;;;;11.97;9.13;;;;;;;;;;4994143;28;20482;-57
2021/12/27 03:42:34;;;;;;;11.37;9.23;;;;;;;;;;4999220;28;20239;-56
2021/12/27 03:45:01;;;;;;;12.37;9.30;;;;;;;;;;5013207;28;20235;-57
2021/12/27 03:47:26;;;;;;;10.43;9.07;;;;;;;;;;5010295;28;20279;-57
2021/12/27 03:49:52;;;;;;;11.27;9.10;;;;;;;;;;4999712;28;20991;-57
2021/12/27 03:52:18;;;;;;;10.83;9.10;;;;;;;;;;5005576;28;20233;-57
2021/12/27 03:54:44;;;;;;;12.83;10.57;;;;;;;;;;4999715;28;20287;-56
2021/12/27 03:57:10;;;;;;;12.03;9.67;;;;;;;;;;5007525;28;20268;-57
2021/12/27 03:59:50;;;;;;;12.83;9.87;;;;;;;;;;5017883;28;20727;-56
2021/12/27 04:02:16;;;;;;;10.60;8.83;;;;;;;;;;5014306;28;20232;-57
2021/12/27 04:04:42;;;;;;;12.77;9.67;;;;;;;;;;5006411;28;20716;-56
2021/12/27 04:07:08;;;;;;;11.83;9.30;;;;;;;;;;5009681;28;20231;-57
2021/12/27 04:09:35;;;;;;;12.70;9.40;;;;;;;;;;4996692;28;20795;-57
2021/12/27 04:12:01;;;;;;;11.30;9.40;;;;;;;;;;5007586;28;20653;-56
2021/12/27 04:14:27;;;;;;;10.93;9.03;;;;;;;;;;5006730;28;21169;-57
2021/12/27 04:16:53;;;;;;;10.00;8.83;;;;;;;;;;4989890;28;20932;-57
2021/12/27 04:19:19;;;;;;;11.00;9.70;;;;;;;;;;4993388;28;20275;-56
2021/12/27 04:21:45;;;;;;;11.77;9.20;;;;;;;;;;4999758;28;20498;-57
2021/12/27 04:24:11;;;;;;;12.97;9.80;;;;;;;;;;5000087;28;20297;-57
2021/12/27 04:26:37;;;;;;;9.70;8.70;;;;;;;;;;4991597;28;20243;-57
2021/12/27 04:29:03;;;;;;;12.80;9.43;;;;;;;;;;4986432;28;20244;-57
2021/12/27 04:31:29;;;;;;;10.97;9.00;;;;;;;;;;4978311;28;20271;-57
2021/12/27 04:33:55;;;;;;;11.30;8.83;;;;;;;;;;4977216;28;20232;-57
2021/12/27 04:36:21;;;;;;;11.33;9.03;;;;;;;;;;5010562;28;20871;-57
2021/12/27 04:38:47;;;;;;;11.17;9.17;;;;;;;;;;5003126;28;20735;-56
2021/12/27 04:41:15;;;;;;;12.37;8.97;;;;;;;;;;5004818;28;20870;-56
2021/12/27 04:43:41;;;;;;;11.30;8.77;;;;;;;;;;5002678;28;20223;-56
2021/12/27 04:46:07;;;;;;;11.20;9.13;;;;;;;;;;5000398;28;20907;-56
2021/12/27 04:48:33;;;;;;;12.27;9.20;;;;;;;;;;4996076;28;20241;-57
2021/12/27 04:50:59;;;;;;;11.20;9.00;;;;;;;;;;4997580;28;20236;-57
2021/12/27 04:53:25;;;;;;;12.80;9.63;;;;;;;;;;4993939;28;20355;-56
2021/12/27 04:55:51;;;;;;;10.43;8.83;;;;;;;;;;5005592;28;20232;-57
2021/12/27 04:58:21;;;;;;;10.47;8.47;;;;;;;;;;5000166;28;20240;-56
2021/12/27 05:00:47;;;;;;;12.30;9.93;;;;;;;;;;4995843;28;20224;-57
2021/12/27 05:03:13;;;;;;;9.87;8.47;;;;;;;;;;5010761;28;20397;-57
2021/12/27 05:05:43;;;;;;;11.47;9.10;;;;;;;;;;5004887;28;20447;-57
2021/12/27 05:08:09;;;;;;;11.13;9.30;;;;;;;;;;5007654;28;20642;-57
2021/12/27 05:10:36;;;;;;;12.43;9.10;;;;;;;;;;5000505;28;20236;-57
2021/12/27 05:13:01;;;;;;;11.67;9.80;;;;;;;;;;4996040;28;20235;-57
2021/12/27 05:15:27;;;;;;;11.80;10.00;;;;;;;;;;4994213;28;20232;-56
2021/12/27 05:17:53;;;;;;;11.70;9.50;;;;;;;;;;4987502;28;20231;-56
2021/12/27 05:20:19;;;;;;;12.00;9.67;;;;;;;;;;4998892;28;20229;-56
2021/12/27 05:22:45;;;;;;;11.27;8.77;;;;;;;;;;4993830;28;20665;-57
2021/12/27 05:25:14;;;;;;;11.93;9.73;;;;;;;;;;5014287;28;20226;-56
2021/12/27 05:27:40;;;;;;;11.43;9.43;;;;;;;;;;5014574;28;20248;-57
2021/12/27 05:30:06;;;;;;;11.77;8.97;;;;;;;;;;4997065;28;20325;-57
2021/12/27 05:32:34;;;;;;;11.37;9.70;;;;;;;;;;4996531;28;20315;-57
2021/12/27 05:35:00;;;;;;;11.73;9.30;;;;;;;;;;5008823;28;20315;-56
2021/12/27 05:37:26;;;;;;;11.40;9.67;;;;;;;;;;4999483;28;20238;-56
2021/12/27 05:39:52;;;;;;;12.87;9.43;;;;;;;;;;4992480;28;20233;-56
2021/12/27 05:42:18;;;;;;;11.63;9.43;;;;;;;;;;4999221;28;20227;-56
2021/12/27 05:44:44;;;;;;;9.97;8.97;;;;;;;;;;5008135;28;20689;-56
2021/12/27 05:47:10;;;;;;;12.37;9.67;;;;;;;;;;5003960;28;20307;-56
2021/12/27 05:49:35;;;;;;;11.40;9.50;;;;;;;;;;4992990;28;20832;-57
2021/12/27 05:52:01;;;;;;;10.53;8.37;;;;;;;;;;4985068;28;20235;-57
2021/12/27 05:54:27;;;;;;;11.67;9.30;;;;;;;;;;4993226;28;20226;-57
2021/12/27 05:56:53;;;;;;;12.03;9.93;;;;;;;;;;4994882;28;20231;-57
2021/12/27 05:59:19;;;;;;;12.17;9.47;;;;;;;;;;4996288;28;20232;-56
2021/12/27 06:01:45;;;;;;;12.20;9.70;;;;;;;;;;4980093;28;21176;-57
2021/12/27 06:04:11;;;;;;;12.63;9.70;;;;;;;;;;4987137;28;21458;-57
2021/12/27 06:06:37;;;;;;;13.70;9.97;;;;;;;;;;4988822;28;20239;-56
2021/12/27 06:09:04;;;;;;;12.83;9.17;;;;;;;;;;4998415;28;20224;-57
2021/12/27 06:11:30;;;;;;;11.73;8.93;;;;;;;;;;5000811;28;20229;-57
2021/12/27 06:13:56;;;;;;;13.03;9.53;;;;;;;;;;4997334;28;20702;-56
2021/12/27 06:16:22;;;;;;;11.67;9.20;;;;;;;;;;5008358;28;20258;-57
2021/12/27 06:18:48;;;;;;;12.00;9.07;;;;;;;;;;5007060;28;20232;-56
2021/12/27 06:21:14;;;;;;;12.83;9.90;;;;;;;;;;5008154;28;20688;-57
2021/12/27 06:23:40;;;;;;;13.07;9.20;;;;;;;;;;5006377;28;20223;-56
2021/12/27 06:26:06;;;;;;;11.67;9.30;;;;;;;;;;5015308;28;20319;-56
2021/12/27 06:28:34;;;;;;;13.27;8.87;;;;;;;;;;4997097;28;20828;-56
2021/12/27 06:31:00;;;;;;;10.73;9.03;;;;;;;;;;5001369;28;20241;-56
2021/12/27 06:33:26;;;;;;;13.67;9.57;;;;;;;;;;5006033;28;20704;-56
2021/12/27 06:35:52;;;;;;;11.33;9.10;;;;;;;;;;4993812;28;20397;-56
2021/12/27 06:38:18;;;;;;;14.13;9.10;;;;;;;;;;4991878;28;20237;-57
2021/12/27 06:40:44;;;;;;;18.03;11.23;;;;;;;;;;4993746;28;20970;-56
2021/12/27 06:43:10;;;;;;;20.47;12.40;;;;;;;;;;5004157;28;20852;-56
2021/12/27 06:45:38;;;;;;;18.90;12.87;;;;;;;;;;5006472;28;20235;-56
2021/12/27 06:48:04;;;;;;;24.00;12.10;;;;;;;;;;5001298;28;20629;-57
2021/12/27 06:50:30;;;;;;;16.20;11.97;;;;;;;;;;5003361;28;20789;-57
2021/12/27 06:52:56;;;;;;;17.00;11.53;;;;;;;;;;4999099;28;20275;-57
2021/12/27 06:55:22;;;;;;;15.33;11.13;;;;;;;;;;5005858;28;20230;-57
2021/12/27 06:57:49;;;;;;;15.20;10.77;;;;;;;;;;5006167;28;21025;-57
2021/12/27 07:00:15;;;;;;;16.00;11.43;;;;;;;;;;5005372;28;20706;-57
2021/12/27 07:02:41;;;;;;;15.63;10.43;;;;;;;;;;4993019;28;20691;-57
2021/12/27 07:05:07;;;;;;;17.20;11.77;;;;;;;;;;5011692;28;20443;-57
2021/12/27 07:07:33;;;;;;;14.70;10.73;;;;;;;;;;5001503;28;20271;-56
2021/12/27 07:09:59;;;;;;;15.10;10.57;;;;;;;;;;5010719;28;20718;-56
2021/12/27 07:12:25;;;;;;;12.77;9.73;;;;;;;;;;5007520;28;20229;-56
2021/12/27 07:14:53;;;;;;;13.23;9.77;;;;;;;;;;5014066;28;20225;-56
2021/12/27 07:17:19;;;;;;;14.07;10.30;;;;;;;;;;5013409;28;20290;-56
2021/12/27 07:19:45;;;;;;;14.47;9.47;;;;;;;;;;5007327;28;20236;-56
2021/12/27 07:22:11;;;;;;;15.13;10.10;;;;;;;;;;5011994;28;20236;-57
2021/12/27 07:24:37;;;;;;;13.17;9.53;;;;;;;;;;5022156;28;20232;-57
2021/12/27 07:27:03;;;;;;;14.70;9.53;;;;;;;;;;5018803;28;20261;-56
2021/12/27 07:29:29;;;;;;;12.00;8.93;;;;;;;;;;5007325;28;20241;-56
2021/12/27 07:31:55;;;;;;;12.33;9.43;;;;;;;;;;5016844;28;20227;-56
2021/12/27 07:34:24;;;;;;;13.57;9.70;;;;;;;;;;5009839;28;20263;-56
2021/12/27 07:36:50;;;;;;;13.83;9.47;;;;;;;;;;5013809;28;20236;-56
2021/12/27 07:39:16;;;;;;;11.70;9.10;;;;;;;;;;5011308;28;20239;-56
2021/12/27 07:41:42;;;;;;;15.80;9.10;;;;;;;;;;5006301;28;20286;-56
2021/12/27 07:44:08;;;;;;;13.47;8.93;;;;;;;;;;5024376;28;20236;-56
2021/12/27 07:46:35;;;;;;;12.03;8.53;;;;;;;;;;5022594;28;20713;-56
2021/12/27 07:49:01;;;;;;;12.80;8.97;;;;;;;;;;5023793;28;20231;-56
2021/12/27 07:51:27;;;;;;;12.37;8.83;;;;;;;;;;5026613;28;20296;-56
2021/12/27 07:53:53;;;;;;;13.40;9.47;;;;;;;;;;5024167;28;20375;-56
2021/12/27 07:56:19;;;;;;;12.47;8.43;;;;;;;;;;5007993;28;20233;-55
2021/12/27 07:58:45;;;;;;;11.47;8.87;;;;;;;;;;5012123;28;20964;-56
2021/12/27 08:01:11;;;;;;;12.23;8.60;;;;;;;;;;5021751;28;20261;-56
2021/12/27 08:03:37;;;;;;;14.20;8.80;;;;;;;;;;5025031;28;20244;-56
2021/12/27 08:06:03;;;;;;;12.10;7.97;;;;;;;;;;5021660;28;20233;-56
2021/12/27 08:08:29;;;;;;;11.17;8.80;;;;;;;;;;5020529;28;20229;-56
2021/12/27 08:10:55;;;;;;;53.10;13.33;;;;;;;;;;5021428;28;20334;-56
2021/12/27 08:13:21;;;;;;;18.23;10.47;;;;;;;;;;5015585;28;20290;-56
2021/12/27 08:15:47;;;;;;;23.50;9.67;;;;;;;;;;5016242;28;20689;-56
2021/12/27 08:18:13;;;;;;;14.00;8.90;;;;;;;;;;5003833;28;20286;-56
2021/12/27 08:20:39;;;;;;;18.03;9.50;;;;;;;;;;5021701;28;20235;-56
2021/12/27 08:23:05;;;;;;;21.60;9.07;;;;;;;;;;5021465;28;20254;-56
2021/12/27 08:25:31;;;;;;;16.83;8.90;;;;;;;;;;5020398;28;20297;-56
2021/12/27 08:27:57;;;;;;;13.30;8.87;;;;;;;;;;5021814;28;20244;-56
2021/12/27 08:30:23;;;;;;;13.97;8.90;;;;;;;;;;5017854;28;20857;-56
2021/12/27 08:32:49;;;;;;;13.27;8.50;;;;;;;;;;5025120;28;20243;-56
2021/12/27 08:35:15;;;;;;;18.20;9.07;;;;;;;;;;5017199;28;20229;-56
2021/12/27 08:37:42;;;;;;;15.60;9.07;;;;;;;;;;5019289;28;20234;-57
2021/12/27 08:40:09;;;;;;;13.40;9.33;;;;;;;;;;5012087;28;20235;-56
2021/12/27 08:42:35;;;;;;;13.27;8.60;;;;;;;;;;5012940;28;20266;-56
2021/12/27 08:45:01;;;;;;;12.07;8.87;;;;;;;;;;5018170;28;20863;-56
2021/12/27 08:47:27;;;;;;;11.43;8.37;;;;;;;;;;5019085;28;20222;-56
2021/12/27 08:49:53;;;;;;;10.53;8.57;;;;;;;;;;5004357;28;20309;-56
2021/12/27 08:52:19;;;;;;;13.07;8.70;;;;;;;;;;5007461;28;20350;-56
2021/12/27 08:54:45;;;;;;;14.83;9.57;;;;;;;;;;5012925;28;20229;-56
2021/12/27 08:57:11;;;;;;;12.50;8.53;;;;;;;;;;4999556;28;20245;-56
2021/12/27 08:59:37;;;;;;;11.07;8.47;;;;;;;;;;4999778;28;20557;-56
2021/12/27 09:02:03;;;;;;;12.83;8.70;;;;;;;;;;5010048;28;20736;-56
2021/12/27 09:04:29;;;;;;;10.60;8.30;;;;;;;;;;4996402;28;20324;-56
2021/12/27 09:06:55;;;;;;;12.87;8.17;;;;;;;;;;5003858;28;20672;-56
2021/12/27 09:09:21;;;;;;;10.13;8.43;;;;;;;;;;5006293;28;20744;-56
2021/12/27 09:11:47;;;;;;;11.33;8.67;;;;;;;;;;5014907;28;20680;-56
2021/12/27 09:14:13;;;;;;;11.30;8.60;;;;;;;;;;5010315;28;20288;-56
2021/12/27 09:16:39;;;;;;;10.47;8.53;;;;;;;;;;5012670;28;20714;-56
2021/12/27 09:19:05;;;;;;;11.50;8.53;;;;;;;;;;4997766;28;20415;-56
2021/12/27 09:21:31;;;;;;;11.67;8.93;;;;;;;;;;5004652;28;20287;-56
2021/12/27 09:23:57;;;;;;;12.47;8.70;;;;;;;;;;5017671;28;20228;-56
2021/12/27 09:26:23;;;;;;;10.67;8.17;;;;;;;;;;5009302;28;20239;-56
2021/12/27 09:28:49;;;;;;;10.97;8.23;;;;;;;;;;5022461;28;20216;-56
2021/12/27 09:31:15;;;;;;;11.40;8.10;;;;;;;;;;5013590;28;20241;-56
2021/12/27 09:33:41;;;;;;;10.73;7.90;;;;;;;;;;5004783;28;20825;-56
2021/12/27 09:36:07;;;;;;;9.73;8.20;;;;;;;;;;5008547;28;20341;-56
2021/12/27 09:38:33;;;;;;;10.67;8.33;;;;;;;;;;5011935;28;20241;-56
2021/12/27 09:40:59;;;;;;;11.03;8.07;;;;;;;;;;5006459;28;20686;-58
2021/12/27 09:43:26;;;;;;;10.57;8.63;;;;;;;;;;5021341;28;20232;-56
2021/12/27 09:45:52;;;;;;;11.27;8.77;;;;;;;;;;5019252;28;20236;-57
2021/12/27 09:48:18;;;;;;;11.07;7.90;;;;;;;;;;5016871;28;20242;-56
2021/12/27 09:50:46;;;;;;;9.73;7.80;;;;;;;;;;5019884;28;20724;-56
2021/12/27 09:53:12;;;;;;;13.40;8.63;;;;;;;;;;5014363;28;20240;-56
2021/12/27 09:55:38;;;;;;;10.10;7.83;;;;;;;;;;5015700;28;20285;-57
2021/12/27 09:58:05;;;;;;;10.93;8.57;;;;;;;;;;4999248;28;21207;-56
2021/12/27 10:00:31;;;;;;;10.53;8.47;;;;;;;;;;5009785;28;20224;-56
2021/12/27 10:02:57;;;;;;;11.83;8.27;;;;;;;;;;5009108;28;20303;-57
2021/12/27 10:05:23;;;;;;;10.40;8.17;;;;;;;;;;5004660;28;20787;-56
2021/12/27 10:07:49;;;;;;;10.97;7.60;;;;;;;;;;5003493;28;20822;-56
2021/12/27 10:10:15;;;;;;;8.53;7.27;;;;;;;;;;5009469;28;20269;-56
2021/12/27 10:12:41;;;;;;;9.63;7.83;;;;;;;;;;5010316;28;20351;-56
2021/12/27 10:15:08;;;;;;;9.37;7.43;;;;;;;;;;5003229;28;21230;-57
2021/12/27 10:17:35;;;;;;;11.90;7.63;;;;;;;;;;5009910;28;20235;-56
2021/12/27 10:20:10;;;;;;;10.07;7.30;;;;;;;;;;5013233;28;20788;-56
2021/12/27 10:22:46;;;;;;;10.07;7.03;;;;;;;;;;5011299;28;20235;-56
2021/12/27 10:25:22;;;;;;;8.67;7.50;;;;;;;;;;5007942;28;20495;-57
2021/12/27 10:27:48;;;;;;;8.70;7.27;;;;;;;;;;5004977;28;20679;-57
2021/12/27 10:30:18;;;;;;;9.27;7.50;;;;;;;;;;5004247;28;20479;-57
2021/12/27 10:32:44;;;;;;;7.87;7.07;;;;;;;;;;5002851;28;20238;-56
2021/12/27 10:35:11;;;;;;;9.00;7.57;;;;;;;;;;5012299;28;20281;-56
2021/12/27 10:37:37;;;;;;;7.93;7.13;;;;;;;;;;5012298;28;20259;-57
2021/12/27 10:40:10;;;;;;;8.80;7.27;;;;;;;;;;5009043;28;21278;-57
2021/12/27 10:42:43;;;;;;;7.70;6.90;;;;;;;;;;5020836;28;20293;-56
2021/12/27 10:45:11;;;;;;;8.00;6.93;;;;;;;;;;5018494;28;20720;-57
2021/12/27 10:47:44;;;;;;;9.93;7.43;;;;;;;;;;5016382;28;20232;-57
2021/12/27 10:50:20;;;;;;;8.70;7.70;;;;;;;;;;4996222;28;20442;-56
2021/12/27 10:52:51;;;;;;;8.50;7.50;;;;;;;;;;5017188;28;20244;-56
2021/12/27 10:55:19;;;;;;;8.67;7.07;;;;;;;;;;5021634;28;20220;-56
2021/12/27 10:57:45;;;;;;;11.53;7.37;;;;;;;;;;5008185;28;20709;-56
2021/12/27 11:00:15;;;;;;;9.97;7.20;;;;;;;;;;5016282;28;20317;-56
2021/12/27 11:02:41;;;;;;;8.30;7.40;;;;;;;;;;5016451;28;20852;-57
2021/12/27 11:05:21;;;;;;;9.73;7.60;;;;;;;;;;5015890;28;20885;-56
2021/12/27 11:07:47;;;;;;;7.93;6.93;;;;;;;;;;5018251;28;20251;-56
2021/12/27 11:10:13;;;;;;;8.20;7.40;;;;;;;;;;5014958;28;20355;-57
2021/12/27 11:12:39;;;;;;;9.07;7.70;;;;;;;;;;5008793;28;20363;-56
2021/12/27 11:15:09;;;;;;;8.90;7.30;;;;;;;;;;5017987;28;20674;-57
2021/12/27 11:17:35;;;;;;;9.67;7.63;;;;;;;;;;5015293;28;22054;-56
2021/12/27 11:20:01;;;;;;;9.17;7.73;;;;;;;;;;5000392;28;20313;-57
2021/12/27 11:22:28;;;;;;;9.33;7.70;;;;;;;;;;5002193;28;20399;-56
2021/12/27 11:24:54;;;;;;;8.53;7.67;;;;;;;;;;5009423;28;20327;-56
2021/12/27 11:27:20;;;;;;;9.30;7.43;;;;;;;;;;5006314;28;20597;-56
2021/12/27 11:30:05;;;;;;;7.80;7.00;;;;;;;;;;5003390;28;20662;-56
2021/12/27 11:32:31;;;;;;;8.10;7.10;;;;;;;;;;5019904;28;20310;-56
2021/12/27 11:34:57;;;;;;;8.20;7.13;;;;;;;;;;5009285;28;20231;-56
2021/12/27 11:37:34;;;;;;;8.20;7.10;;;;;;;;;;4996713;28;20536;-57
2021/12/27 11:40:07;;;;;;;8.37;7.30;;;;;;;;;;5006904;28;20921;-56
2021/12/27 11:42:52;;;;;;;10.37;7.10;;;;;;;;;;5010954;28;20263;-56
2021/12/27 11:45:37;;;;;;;9.07;6.87;;;;;;;;;;5008918;28;20243;-56
2021/12/27 11:48:07;;;;;;;8.53;7.23;;;;;;;;;;5011921;28;20697;-56
2021/12/27 11:50:33;;;;;;;7.87;7.00;;;;;;;;;;5005945;28;20232;-56
2021/12/27 11:53:05;;;;;;;8.00;7.20;;;;;;;;;;5016177;28;20309;-56
2021/12/27 11:55:38;;;;;;;9.87;7.53;;;;;;;;;;5015192;28;20283;-56
2021/12/27 11:58:04;;;;;;;9.87;6.97;;;;;;;;;;5022670;28;20407;-56
2021/12/27 12:00:30;;;;;;;7.50;6.67;;;;;;;;;;5001291;28;20232;-57
2021/12/27 12:03:16;;;;;;;7.47;6.47;;;;;;;;;;5002980;28;20248;-56
2021/12/27 12:05:47;;;;;;;7.27;6.50;;;;;;;;;;5011792;28;20232;-56
2021/12/27 12:08:16;;;;;;;7.10;6.40;;;;;;;;;;5016959;28;20646;-60
2021/12/27 12:10:49;;;;;;;6.77;6.07;;;;;;;;;;5013514;28;20248;-56
2021/12/27 12:13:19;;;;;;;7.10;5.90;;;;;;;;;;5011532;28;20231;-57
2021/12/27 12:16:07;;;;;;;6.97;6.27;;;;;;;;;;5016838;28;20240;-56
2021/12/27 12:18:33;;;;;;;7.00;6.10;;;;;;;;;;4994754;28;20258;-57
2021/12/27 12:21:00;;;;;;;5.93;5.33;;;;;;;;;;4995813;28;20731;-57
2021/12/27 12:23:26;;;;;;;7.07;5.80;;;;;;;;;;4991264;28;20267;-56
2021/12/27 12:25:59;;;;;;;7.17;6.03;;;;;;;;;;5004548;28;20463;-56
2021/12/27 12:28:25;;;;;;;6.77;5.17;;;;;;;;;;5001141;28;20236;-56
2021/12/27 12:30:51;;;;;;;5.97;5.37;;;;;;;;;;4999285;28;20239;-56
2021/12/27 12:33:24;;;;;;;6.40;5.70;;;;;;;;;;5003049;28;20240;-56
2021/12/27 12:35:51;;;;;;;6.00;5.40;;;;;;;;;;5000819;28;20245;-56
2021/12/27 12:38:21;;;;;;;6.40;5.60;;;;;;;;;;5003962;28;20240;-56
2021/12/27 12:41:20;;;;;;;5.63;5.10;;;;;;;;;;4997734;28;20236;-56
2021/12/27 12:43:49;;;;;;;5.83;5.17;;;;;;;;;;4990077;28;20607;-57
2021/12/27 12:46:15;;;;;;;6.20;5.60;;;;;;;;;;4995839;28;20233;-57
2021/12/27 12:48:41;;;;;;;6.00;5.50;;;;;;;;;;4998673;28;20235;-57
2021/12/27 12:51:07;;;;;;;5.70;5.20;;;;;;;;;;5002522;28;20581;-57
2021/12/27 12:53:34;;;;;;;6.30;5.33;;;;;;;;;;5002073;28;20301;-56
2021/12/27 12:56:04;;;;;;;6.27;5.20;;;;;;;;;;4983958;28;20236;-56
2021/12/27 12:58:39;;;;;;;6.57;5.67;;;;;;;;;;4976014;28;20236;-56
2021/12/27 13:01:06;;;;;;;6.03;4.80;;;;;;;;;;4989384;28;20571;-56
2021/12/27 13:03:32;;;;;;;7.10;6.00;;;;;;;;;;4991139;28;20695;-56
2021/12/27 13:05:58;;;;;;;5.63;5.13;;;;;;;;;;4989930;28;20729;-57
2021/12/27 13:08:24;;;;;;;5.83;5.27;;;;;;;;;;4998488;28;20236;-56
2021/12/27 13:10:51;;;;;;;6.83;5.40;;;;;;;;;;5009840;28;20274;-56
2021/12/27 13:13:18;;;;;;;5.80;5.20;;;;;;;;;;5001687;28;20296;-56
2021/12/27 13:15:50;;;;;;;5.67;5.07;;;;;;;;;;4996811;28;20248;-56
2021/12/27 13:18:17;;;;;;;6.27;5.67;;;;;;;;;;4998420;28;20309;-56
2021/12/27 13:20:44;;;;;;;5.30;4.80;;;;;;;;;;5000429;28;20233;-57
2021/12/27 13:23:10;;;;;;;5.80;5.20;;;;;;;;;;4997683;28;20450;-56
2021/12/27 13:25:45;;;;;;;5.13;4.63;;;;;;;;;;4997981;28;20233;-57
2021/12/27 13:28:21;;;;;;;5.30;4.80;;;;;;;;;;4996054;28;20274;-56
2021/12/27 13:30:50;;;;;;;5.60;5.10;;;;;;;;;;4987107;28;20252;-56
2021/12/27 13:33:17;;;;;;;6.83;5.43;;;;;;;;;;4986759;28;20246;-56
2021/12/27 13:35:43;;;;;;;6.00;5.10;;;;;;;;;;4982387;28;20572;-57
2021/12/27 13:38:18;;;;;;;5.37;4.87;;;;;;;;;;4986956;28;20848;-56
2021/12/27 13:40:49;;;;;;;5.37;4.87;;;;;;;;;;4984898;28;20862;-56
2021/12/27 13:43:15;;;;;;;5.40;4.90;;;;;;;;;;4999250;28;21134;-56
2021/12/27 13:45:42;;;;;;;5.97;5.37;;;;;;;;;;4998783;28;20237;-56
2021/12/27 13:48:11;;;;;;;5.10;4.50;;;;;;;;;;5000101;28;20767;-56
2021/12/27 13:50:37;;;;;;;5.50;5.00;;;;;;;;;;5001783;28;20697;-56
2021/12/27 13:53:10;;;;;;;5.30;4.80;;;;;;;;;;5007246;28;20231;-56
2021/12/27 13:55:36;;;;;;;5.07;4.57;;;;;;;;;;4999609;28;20252;-56
2021/12/27 13:58:13;;;;;;;5.60;5.00;;;;;;;;;;5000631;28;20245;-57
2021/12/27 14:00:39;;;;;;;4.77;4.37;;;;;;;;;;5005352;28;20238;-57
2021/12/27 14:03:05;;;;;;;6.53;4.87;;;;;;;;;;5010538;28;20256;-56
2021/12/27 14:05:32;;;;;;;5.37;4.77;;;;;;;;;;5011424;28;20227;-57
2021/12/27 14:08:08;;;;;;;6.13;4.53;;;;;;;;;;5004829;28;20236;-56
2021/12/27 14:10:34;;;;;;;5.10;4.63;;;;;;;;;;5008472;28;20252;-56
2021/12/27 14:13:00;;;;;;;4.87;4.40;;;;;;;;;;5007087;28;20239;-57
2021/12/27 14:15:30;;;;;;;5.77;4.67;;;;;;;;;;4998979;28;21112;-56
2021/12/27 14:18:06;;;;;;;4.90;4.40;;;;;;;;;;5003246;28;20224;-56
2021/12/27 14:20:33;;;;;;;4.80;4.17;;;;;;;;;;5007079;28;20235;-56
2021/12/27 14:23:05;;;;;;;4.77;4.37;;;;;;;;;;4988079;28;20749;-56
2021/12/27 14:25:31;;;;;;;5.33;4.63;;;;;;;;;;4999980;28;20238;-56
2021/12/27 14:27:57;;;;;;;4.43;4.03;;;;;;;;;;4998504;28;20246;-56
2021/12/27 14:30:30;;;;;;;4.57;4.17;;;;;;;;;;5002905;28;20232;-57
2021/12/27 14:32:56;;;;;;;4.97;4.43;;;;;;;;;;5008906;28;20232;-56
2021/12/27 14:35:22;;;;;;;4.87;4.47;;;;;;;;;;5008181;28;20659;-57
2021/12/27 14:37:49;;;;;;;5.70;4.63;;;;;;;;;;5010475;28;20682;-56
2021/12/27 14:40:15;;;;;;;4.97;4.40;;;;;;;;;;5009206;28;20232;-56